createdAt,value
2022-11-20T00:00:56.333Z,98336.03
2022-11-20T00:03:24.421Z,98327.91
2022-11-20T00:05:57.504Z,98324.56
2022-11-20T00:08:32.549Z,98338.31
2022-11-20T00:11:17.073Z,98329.81
2022-11-20T00:14:36.379Z,98335.16
2022-11-20T00:17:10.523Z,98340.63
2022-11-20T00:19:41.015Z,98335.00
2022-11-20T00:22:26.438Z,98335.97
2022-11-20T00:28:28.935Z,98338.13
2022-11-20T00:31:32.997Z,98350.84
2022-11-20T00:34:13.040Z,98347.72
2022-11-20T00:36:40.537Z,98332.19
2022-11-20T00:39:41.957Z,98333.53
2022-11-20T00:42:34.908Z,98340.25
2022-11-20T00:45:35.874Z,98337.19
2022-11-20T00:48:06.847Z,98336.72
2022-11-20T00:54:11.941Z,98344.47
2022-11-20T00:56:54.481Z,98349.22
2022-11-20T00:59:22.293Z,98354.16
2022-11-20T01:01:49.972Z,98350.00
2022-11-20T01:04:17.811Z,98355.22
2022-11-20T01:06:46.342Z,98352.25
2022-11-20T01:09:20.790Z,98348.31
2022-11-20T01:11:51.258Z,98358.88
2022-11-20T01:14:49.419Z,98348.03
2022-11-20T01:17:17.127Z,98363.59
2022-11-20T01:20:04.803Z,98356.31
2022-11-20T01:22:40.323Z,98357.38
2022-11-20T01:25:09.167Z,98368.34
2022-11-20T01:29:04.913Z,98365.16
2022-11-20T01:31:27.129Z,98371.06
2022-11-20T01:34:01.355Z,98372.19
2022-11-20T01:36:32.952Z,98371.38
2022-11-20T01:39:09.106Z,98370.50
2022-11-20T01:41:59.071Z,98376.66
2022-11-20T01:44:51.385Z,98364.03
2022-11-20T01:47:39.042Z,98358.44
2022-11-20T01:50:31.032Z,98355.31
2022-11-20T01:53:16.097Z,98360.56
2022-11-20T01:55:55.054Z,98359.97
2022-11-20T01:58:37.393Z,98354.41
2022-11-20T02:01:06.129Z,98358.31
2022-11-20T02:03:33.675Z,98363.13
2022-11-20T02:06:22.406Z,98361.91
2022-11-20T02:08:56.155Z,98358.25
2022-11-20T02:11:33.879Z,98360.72
2022-11-20T02:14:02.019Z,98372.13
2022-11-20T02:16:53.143Z,98363.22
2022-11-20T02:19:32.515Z,98360.91
2022-11-20T02:23:43.550Z,98369.41
2022-11-20T02:25:34.879Z,98367.59
2022-11-20T02:28:07.351Z,98371.84
2022-11-20T02:30:43.499Z,98362.97
2022-11-20T02:33:18.442Z,98363.75
2022-11-20T02:36:14.652Z,98366.91
2022-11-20T02:38:55.765Z,98360.03
2022-11-20T02:41:56.592Z,98366.59
2022-11-20T02:44:26.469Z,98368.09
2022-11-20T02:46:53.710Z,98364.44
2022-11-20T02:49:21.410Z,98363.69
2022-11-20T02:51:56.036Z,98370.66
2022-11-20T02:54:28.635Z,98372.97
2022-11-20T02:56:56.550Z,98377.75
2022-11-20T02:59:32.569Z,98378.81
2022-11-20T03:02:07.565Z,98374.03
2022-11-20T03:04:34.999Z,98371.78
2022-11-20T03:07:17.237Z,98378.00
2022-11-20T03:09:51.216Z,98374.41
2022-11-20T03:12:21.265Z,98375.38
2022-11-20T03:14:52.866Z,98358.72
2022-11-20T03:17:20.929Z,98370.81
2022-11-20T03:19:48.334Z,98359.19
2022-11-20T03:22:33.722Z,98360.53
2022-11-20T03:25:12.593Z,98365.34
2022-11-20T03:28:02.727Z,98364.63
2022-11-20T03:30:53.415Z,98366.31
2022-11-20T03:34:20.542Z,98359.69
2022-11-20T03:36:42.532Z,98367.03
2022-11-20T03:39:12.522Z,98362.00
2022-11-20T03:41:57.885Z,98373.09
2022-11-20T03:44:25.537Z,98366.38
2022-11-20T03:46:54.444Z,98364.75
2022-11-20T03:49:22.356Z,98369.06
2022-11-20T03:51:54.590Z,98360.47
2022-11-20T03:54:22.190Z,98357.03
2022-11-20T03:56:52.006Z,98358.97
2022-11-20T03:59:30.354Z,98359.47
2022-11-20T04:01:57.958Z,98355.22
2022-11-20T04:04:25.498Z,98364.34
2022-11-20T04:06:53.470Z,98354.25
2022-11-20T04:09:31.694Z,98358.53
2022-11-20T04:12:04.469Z,98361.03
2022-11-20T04:14:34.529Z,98354.94
2022-11-20T04:17:17.293Z,98354.78
2022-11-20T04:20:16.092Z,98351.91
2022-11-20T04:22:46.514Z,98357.47
2022-11-20T04:25:29.674Z,98348.09
2022-11-20T04:28:11.910Z,98343.69
2022-11-20T04:31:26.172Z,98353.69
2022-11-20T04:33:55.516Z,98350.50
2022-11-20T04:39:31.680Z,98353.59
2022-11-20T04:42:28.510Z,98339.97
2022-11-20T04:44:58.564Z,98341.66
2022-11-20T04:47:46.205Z,98339.31
2022-11-20T04:50:13.440Z,98341.34
2022-11-20T04:52:40.726Z,98338.06
2022-11-20T04:55:08.659Z,98346.31
2022-11-20T04:57:35.816Z,98335.47
2022-11-20T05:00:04.133Z,98342.00
2022-11-20T05:02:32.960Z,98337.53
2022-11-20T05:05:00.187Z,98333.47
2022-11-20T05:07:27.398Z,98339.31
2022-11-20T05:09:55.075Z,98345.13
2022-11-20T05:12:22.584Z,98333.69
2022-11-20T05:14:49.675Z,98346.75
2022-11-20T05:17:16.846Z,98335.97
2022-11-20T05:19:44.120Z,98337.81
2022-11-20T05:22:11.293Z,98341.50
2022-11-20T05:24:38.469Z,98343.69
2022-11-20T05:27:05.625Z,98338.00
2022-11-20T05:29:32.824Z,98344.78
2022-11-20T05:32:00.011Z,98346.72
2022-11-20T05:34:27.114Z,98345.31
2022-11-20T05:36:54.251Z,98341.19
2022-11-20T05:39:21.636Z,98345.66
2022-11-20T05:42:08.946Z,98343.22
2022-11-20T05:44:36.170Z,98345.41
2022-11-20T05:47:03.359Z,98351.94
2022-11-20T05:49:30.534Z,98342.88
2022-11-20T05:51:57.763Z,98347.34
2022-11-20T05:54:24.928Z,98343.38
2022-11-20T05:56:52.078Z,98335.47
2022-11-20T05:59:19.386Z,98339.34
2022-11-20T06:01:46.788Z,98348.41
2022-11-20T06:04:13.975Z,98342.53
2022-11-20T06:06:41.235Z,98338.16
2022-11-20T06:09:08.900Z,98343.22
2022-11-20T06:11:36.810Z,98337.31
2022-11-20T06:14:04.703Z,98335.97
2022-11-20T06:16:31.977Z,98342.00
2022-11-20T06:18:59.638Z,98345.84
2022-11-20T06:21:27.108Z,98339.41
2022-11-20T06:23:55.003Z,98343.94
2022-11-20T06:26:27.372Z,98343.03
2022-11-20T06:28:57.033Z,98341.84
2022-11-20T06:31:27.268Z,98343.28
2022-11-20T06:33:55.420Z,98343.56
2022-11-20T06:36:24.194Z,98340.06
2022-11-20T06:38:51.901Z,98344.19
2022-11-20T06:41:22.979Z,98347.38
2022-11-20T06:43:51.305Z,98338.31
2022-11-20T06:46:20.963Z,98345.63
2022-11-20T06:48:50.050Z,98341.69
2022-11-20T06:51:18.103Z,98340.31
2022-11-20T06:53:50.428Z,98338.56
2022-11-20T06:56:18.774Z,98337.81
2022-11-20T06:58:46.369Z,98347.72
2022-11-20T07:01:16.008Z,98350.72
2022-11-20T07:03:49.981Z,98342.00
2022-11-20T07:06:18.616Z,98346.88
2022-11-20T07:08:45.859Z,98347.97
2022-11-20T07:11:14.339Z,98346.19
2022-11-20T07:13:41.815Z,98355.97
2022-11-20T07:16:10.057Z,98354.59
2022-11-20T07:18:37.826Z,98360.44
2022-11-20T07:21:11.254Z,98368.75
2022-11-20T07:23:38.819Z,98361.03
2022-11-20T07:26:10.063Z,98370.84
2022-11-20T07:28:38.762Z,98354.94
2022-11-20T07:31:08.305Z,98361.78
2022-11-20T07:33:35.959Z,98361.16
2022-11-20T07:36:03.356Z,98358.19
2022-11-20T07:38:31.188Z,98365.03
2022-11-20T07:41:05.264Z,98368.06
2022-11-20T07:43:35.931Z,98367.25
2022-11-20T07:46:10.210Z,98368.94
2022-11-20T07:48:37.985Z,98367.00
2022-11-20T07:51:05.826Z,98370.31
2022-11-20T07:53:33.086Z,98365.72
2022-11-20T07:56:05.228Z,98359.06
2022-11-20T07:58:35.301Z,98361.22
2022-11-20T08:01:09.370Z,98365.22
2022-11-20T08:03:39.880Z,98370.88
2022-11-20T08:06:08.008Z,98374.16
2022-11-20T08:08:38.901Z,98375.13
2022-11-20T08:11:28.248Z,98381.50
2022-11-20T08:14:14.014Z,98386.84
2022-11-20T08:16:44.225Z,98384.84
2022-11-20T08:19:13.816Z,98386.59
2022-11-20T08:21:42.175Z,98388.41
2022-11-20T08:24:11.166Z,98386.47
2022-11-20T08:26:40.695Z,98390.78
2022-11-20T08:29:08.457Z,98395.91
2022-11-20T08:31:35.949Z,98388.84
2022-11-20T08:34:08.700Z,98397.53
2022-11-20T08:36:37.503Z,98395.25
2022-11-20T08:39:04.857Z,98390.13
2022-11-20T08:41:34.264Z,98396.91
2022-11-20T08:44:07.567Z,98400.06
2022-11-20T08:46:42.125Z,98395.72
2022-11-20T08:49:12.849Z,98393.03
2022-11-20T08:51:40.961Z,98395.56
2022-11-20T08:54:08.894Z,98388.13
2022-11-20T08:56:37.157Z,98390.91
2022-11-20T09:01:51.944Z,98396.41
2022-11-20T09:04:19.237Z,98400.97
2022-11-20T09:06:46.517Z,98398.78
2022-11-20T09:09:14.059Z,98404.72
2022-11-20T09:11:42.051Z,98397.00
2022-11-20T09:14:09.772Z,98392.59
2022-11-20T09:16:37.029Z,98402.47
2022-11-20T09:19:34.153Z,98401.28
2022-11-20T09:21:56.937Z,98402.97
2022-11-20T09:24:28.816Z,98412.13
2022-11-20T09:26:56.727Z,98408.94
2022-11-20T09:29:24.718Z,98405.78
2022-11-20T09:31:51.982Z,98408.66
2022-11-20T09:34:19.154Z,98413.66
2022-11-20T09:36:46.833Z,98404.78
2022-11-20T09:39:14.349Z,98409.69
2022-11-20T09:41:59.988Z,98413.16
2022-11-20T09:45:01.427Z,98407.06
2022-11-20T09:48:12.471Z,98412.88
2022-11-20T09:50:51.059Z,98408.47
2022-11-20T09:53:56.176Z,98415.72
2022-11-20T09:56:24.573Z,98420.88
2022-11-20T09:58:59.159Z,98419.59
2022-11-20T10:01:36.922Z,98423.00
2022-11-20T10:04:18.414Z,98418.38
2022-11-20T10:07:30.951Z,98418.75
2022-11-20T10:09:57.320Z,98413.63
2022-11-20T10:12:58.651Z,98415.91
2022-11-20T10:16:21.509Z,98418.81
2022-11-20T10:19:47.456Z,98418.09
2022-11-20T10:22:55.974Z,98419.34
2022-11-20T10:25:56.008Z,98416.28
2022-11-20T10:29:20.192Z,98419.47
2022-11-20T10:32:16.342Z,98423.84
2022-11-20T10:35:06.072Z,98432.94
2022-11-20T10:37:39.273Z,98430.13
2022-11-20T10:40:09.152Z,98432.97
2022-11-20T10:42:46.128Z,98431.72
2022-11-20T10:45:25.968Z,98431.78
2022-11-20T10:48:22.323Z,98431.66
2022-11-20T10:51:32.142Z,98424.06
2022-11-20T10:55:43.226Z,98429.38
2022-11-20T10:58:59.579Z,98417.00
2022-11-20T11:01:28.091Z,98421.78
2022-11-20T11:03:58.261Z,98417.31
2022-11-20T11:06:36.827Z,98414.28
2022-11-20T11:09:24.584Z,98423.50
2022-11-20T11:11:55.061Z,98417.75
2022-11-20T11:14:25.746Z,98414.78
2022-11-20T11:16:58.546Z,98404.19
2022-11-20T11:19:26.443Z,98404.31
2022-11-20T11:21:57.969Z,98396.03
2022-11-20T11:24:46.531Z,98401.25
2022-11-20T11:27:18.995Z,98394.09
2022-11-20T11:29:47.981Z,98392.69
2022-11-20T11:32:23.112Z,98393.81
2022-11-20T11:35:08.444Z,98385.69
2022-11-20T11:37:40.334Z,98384.09
2022-11-20T11:40:28.068Z,98380.75
2022-11-20T11:43:03.842Z,98371.53
2022-11-20T11:45:31.562Z,98373.94
2022-11-20T11:48:04.776Z,98368.22
2022-11-20T11:50:34.896Z,98357.75
2022-11-20T11:53:27.813Z,98349.81
2022-11-20T11:56:12.740Z,98345.94
2022-11-20T11:58:53.589Z,98343.06
2022-11-20T12:01:50.207Z,98346.22
2022-11-20T12:04:44.896Z,98343.69
2022-11-20T12:07:48.468Z,98329.44
2022-11-20T12:10:35.889Z,98332.53
2022-11-20T12:13:45.174Z,98334.78
2022-11-20T12:16:19.089Z,98336.56
2022-11-20T12:18:58.341Z,98336.06
2022-11-20T12:21:46.743Z,98337.53
2022-11-20T12:24:58.381Z,98329.91
2022-11-20T12:27:48.872Z,98332.78
2022-11-20T12:30:32.278Z,98330.28
2022-11-20T12:34:00.658Z,98311.75
2022-11-20T12:37:34.628Z,98319.69
2022-11-20T12:40:35.104Z,98315.38
2022-11-20T12:43:57.977Z,98316.34
2022-11-20T12:47:01.296Z,98319.91
2022-11-20T12:50:53.435Z,98317.81
2022-11-20T12:54:24.769Z,98312.94
2022-11-20T12:57:04.050Z,98329.09
2022-11-20T13:00:13.072Z,98322.44
2022-11-20T13:03:29.167Z,98331.38
2022-11-20T13:06:18.166Z,98322.75
2022-11-20T13:09:01.040Z,98322.09
2022-11-20T13:12:03.791Z,98324.66
2022-11-20T13:14:59.520Z,98322.72
2022-11-20T13:18:10.246Z,98317.31
2022-11-20T13:21:47.640Z,98312.31
2022-11-20T13:23:36.483Z,98327.25
2022-11-20T13:26:24.840Z,98321.31
2022-11-20T13:29:28.385Z,98318.78
2022-11-20T13:32:17.246Z,98314.91
2022-11-20T13:35:35.947Z,98304.88
2022-11-20T13:41:41.876Z,98297.09
2022-11-20T13:44:35.862Z,98297.38
2022-11-20T13:47:26.496Z,98296.50
2022-11-20T13:49:57.063Z,98286.50
2022-11-20T13:53:00.353Z,98284.97
2022-11-20T13:56:06.956Z,98292.50
2022-11-20T13:59:23.174Z,98295.16
2022-11-20T14:02:05.372Z,98290.97
2022-11-20T14:05:34.273Z,98283.16
2022-11-20T14:08:50.557Z,98296.00
2022-11-20T14:11:49.261Z,98293.03
2022-11-20T14:14:30.467Z,98282.88
2022-11-20T14:17:37.408Z,98284.59
2022-11-20T14:20:14.706Z,98285.88
2022-11-20T14:22:51.649Z,98293.06
2022-11-20T14:25:28.042Z,98296.50
2022-11-20T14:28:56.201Z,98300.13
2022-11-20T14:31:28.399Z,98287.09
2022-11-20T14:33:56.927Z,98300.44
2022-11-20T14:37:24.615Z,98300.78
2022-11-20T14:39:57.043Z,98292.13
2022-11-20T14:42:43.838Z,98286.19
2022-11-20T14:45:14.127Z,98301.34
2022-11-20T14:47:45.193Z,98282.69
2022-11-20T14:50:56.061Z,98275.06
2022-11-20T14:55:11.475Z,98270.38
2022-11-20T14:57:03.432Z,98277.63
2022-11-20T14:59:54.286Z,98264.28
2022-11-20T15:07:05.272Z,98250.13
2022-11-20T15:09:23.660Z,98255.91
2022-11-20T15:12:06.465Z,98246.81
2022-11-20T15:14:40.248Z,98246.19
2022-11-20T15:17:26.166Z,98246.91
2022-11-20T15:20:18.013Z,98252.22
2022-11-20T15:22:53.387Z,98247.22
2022-11-20T15:26:23.001Z,98255.13
2022-11-20T15:28:33.274Z,98256.16
2022-11-20T15:31:22.572Z,98243.16
2022-11-20T15:34:00.092Z,98242.63
2022-11-20T15:36:41.884Z,98235.38
2022-11-20T15:39:21.435Z,98245.00
2022-11-20T15:41:52.195Z,98235.91
2022-11-20T15:44:21.456Z,98233.38
2022-11-20T15:46:55.409Z,98238.41
2022-11-20T15:49:28.776Z,98233.13
2022-11-20T15:52:06.222Z,98234.94
2022-11-20T15:56:49.978Z,98220.34
2022-11-20T15:58:45.313Z,98214.50
2022-11-20T16:01:25.798Z,98220.34
2022-11-20T16:03:56.648Z,98217.16
2022-11-20T16:06:32.321Z,98213.06
2022-11-20T16:09:00.305Z,98213.06
2022-11-20T16:11:32.698Z,98215.19
2022-11-20T16:14:23.120Z,98209.19
2022-11-20T16:16:50.919Z,98212.72
2022-11-20T16:19:21.666Z,98220.59
2022-11-20T16:25:50.762Z,98216.44
2022-11-20T16:27:27.865Z,98218.56
2022-11-20T16:29:59.517Z,98217.34
2022-11-20T16:32:27.778Z,98206.78
2022-11-20T16:35:10.466Z,98216.13
2022-11-20T16:37:46.814Z,98206.38
2022-11-20T16:40:21.243Z,98210.00
2022-11-20T16:43:01.430Z,98197.81
2022-11-20T16:45:46.340Z,98204.13
2022-11-20T16:48:30.753Z,98195.22
2022-11-20T16:51:06.596Z,98188.59
2022-11-20T16:53:46.847Z,98189.06
2022-11-20T16:56:24.232Z,98185.31
2022-11-20T16:58:57.472Z,98197.06
2022-11-20T17:01:44.660Z,98186.28
2022-11-20T17:04:20.881Z,98199.97
2022-11-20T17:07:18.055Z,98184.03
2022-11-20T17:10:16.681Z,98186.81
2022-11-20T17:12:47.590Z,98186.31
2022-11-20T17:15:40.911Z,98183.34
2022-11-20T17:18:19.290Z,98174.28
2022-11-20T17:20:53.018Z,98172.47
2022-11-20T17:23:48.487Z,98175.56
2022-11-20T17:27:08.431Z,98179.22
2022-11-20T17:29:42.211Z,98171.00
2022-11-20T17:32:23.419Z,98176.66
2022-11-20T17:35:19.239Z,98172.16
2022-11-20T17:37:54.908Z,98169.28
2022-11-20T17:40:27.111Z,98172.97
2022-11-20T17:43:23.187Z,98166.50
2022-11-20T17:46:22.110Z,98154.91
2022-11-20T17:49:24.220Z,98142.56
2022-11-20T17:51:54.809Z,98147.13
2022-11-20T17:54:25.213Z,98144.31
2022-11-20T17:57:12.226Z,98154.59
2022-11-20T17:59:40.788Z,98149.56
2022-11-20T18:02:17.072Z,98144.84
2022-11-20T18:04:54.433Z,98140.09
2022-11-20T18:08:21.677Z,98136.88
2022-11-20T18:10:42.094Z,98137.03
2022-11-20T18:13:12.944Z,98138.75
2022-11-20T18:15:59.416Z,98127.25
2022-11-20T18:18:27.038Z,98127.19
2022-11-20T18:20:54.581Z,98123.75
2022-11-20T18:23:22.143Z,98126.75
2022-11-20T18:25:49.706Z,98127.16
2022-11-20T18:28:20.197Z,98127.25
2022-11-20T18:30:47.785Z,98126.84
2022-11-20T18:33:18.289Z,98119.09
2022-11-20T18:35:55.373Z,98120.66
2022-11-20T18:38:23.321Z,98103.63
2022-11-20T18:40:53.745Z,98099.97
2022-11-20T18:43:40.168Z,98091.28
2022-11-20T18:46:08.457Z,98101.44
2022-11-20T18:48:37.151Z,98095.09
2022-11-20T18:51:17.508Z,98096.94
2022-11-20T18:53:47.496Z,98090.22
2022-11-20T18:56:16.262Z,98099.13
2022-11-20T18:58:44.234Z,98077.47
2022-11-20T19:01:12.418Z,98080.56
2022-11-20T19:03:40.334Z,98092.00
2022-11-20T19:06:16.897Z,98083.69
2022-11-20T19:08:44.733Z,98087.69
2022-11-20T19:11:14.018Z,98072.00
2022-11-20T19:13:42.389Z,98077.38
2022-11-20T19:16:19.028Z,98095.41
2022-11-20T19:18:48.580Z,98100.00
2022-11-20T19:21:24.187Z,98103.06
2022-11-20T19:23:55.916Z,98104.38
2022-11-20T19:26:24.030Z,98089.69
2022-11-20T19:28:56.027Z,98104.59
2022-11-20T19:31:27.031Z,98088.44
2022-11-20T19:33:59.445Z,98093.97
2022-11-20T19:36:44.397Z,98084.75
2022-11-20T19:39:13.477Z,98072.78
2022-11-20T19:41:44.857Z,98067.16
2022-11-20T19:44:17.471Z,98064.38
2022-11-20T19:46:45.611Z,98062.16
2022-11-20T19:49:15.211Z,98063.72
2022-11-20T19:51:52.483Z,98057.13
2022-11-20T19:54:20.313Z,98054.38
2022-11-20T19:56:49.667Z,98060.50
2022-11-20T19:59:18.275Z,98059.00
2022-11-20T20:01:46.513Z,98062.84
2022-11-20T20:04:14.352Z,98060.91
2022-11-20T20:07:05.728Z,98050.59
2022-11-20T20:09:41.718Z,98047.34
2022-11-20T20:12:09.090Z,98042.91
2022-11-20T20:14:36.402Z,98045.88
2022-11-20T20:17:40.528Z,98046.94
2022-11-20T20:20:11.055Z,98052.09
2022-11-20T20:22:39.037Z,98049.47
2022-11-20T20:25:07.242Z,98042.31
2022-11-20T20:27:36.734Z,98055.56
2022-11-20T20:30:07.568Z,98051.41
2022-11-20T20:32:36.211Z,98046.81
2022-11-20T20:35:05.114Z,98041.53
2022-11-20T20:37:32.607Z,98050.94
2022-11-20T20:40:00.246Z,98051.13
2022-11-20T20:42:32.479Z,98056.75
2022-11-20T20:45:11.079Z,98059.78
2022-11-20T20:47:41.503Z,98064.31
2022-11-20T20:50:13.054Z,98065.88
2022-11-20T20:52:40.782Z,98067.22
2022-11-20T20:55:09.131Z,98065.22
2022-11-20T20:57:36.952Z,98063.72
2022-11-20T21:00:08.953Z,98074.19
2022-11-20T21:02:36.621Z,98077.44
2022-11-20T21:05:04.515Z,98069.00
2022-11-20T21:07:31.819Z,98073.88
2022-11-20T21:10:00.872Z,98071.00
2022-11-20T21:12:28.660Z,98074.75
2022-11-20T21:14:56.541Z,98077.47
2022-11-20T21:17:24.078Z,98065.09
2022-11-20T21:19:51.550Z,98071.16
2022-11-20T21:22:19.135Z,98072.63
2022-11-20T21:24:47.377Z,98079.44
2022-11-20T21:27:15.295Z,98069.00
2022-11-20T21:29:43.505Z,98080.59
2022-11-20T21:32:11.287Z,98084.28
2022-11-20T21:34:39.098Z,98086.53
2022-11-20T21:37:07.520Z,98084.94
2022-11-20T21:39:35.325Z,98073.00
2022-11-20T21:42:02.742Z,98069.97
2022-11-20T21:44:31.690Z,98066.66
2022-11-20T21:46:59.502Z,98061.41
2022-11-20T21:49:27.011Z,98060.53
2022-11-20T21:51:54.599Z,98065.72
2022-11-20T21:54:22.614Z,98060.78
2022-11-20T21:57:02.339Z,98061.53
2022-11-20T21:59:36.204Z,98062.69
2022-11-20T22:02:06.477Z,98070.09
2022-11-20T22:04:33.992Z,98064.53
2022-11-20T22:07:01.607Z,98074.69
2022-11-20T22:09:29.086Z,98077.69
2022-11-20T22:11:56.792Z,98076.03
2022-11-20T22:14:25.762Z,98069.88
2022-11-20T22:16:54.507Z,98082.81
2022-11-20T22:19:26.435Z,98081.59
2022-11-20T22:21:53.725Z,98076.59
2022-11-20T22:24:23.456Z,98080.69
2022-11-20T22:26:52.531Z,98098.84
2022-11-20T22:29:22.083Z,98085.97
2022-11-20T22:31:53.577Z,98079.78
2022-11-20T22:34:21.184Z,98087.00
2022-11-20T22:36:48.888Z,98082.00
2022-11-20T22:39:18.855Z,98088.00
2022-11-20T22:41:49.230Z,98090.13
2022-11-20T22:44:16.741Z,98075.47
2022-11-20T22:46:46.575Z,98082.09
2022-11-20T22:49:13.727Z,98087.84
2022-11-20T22:51:42.024Z,98089.88
2022-11-20T22:54:12.801Z,98084.66
2022-11-20T22:56:41.725Z,98091.03
2022-11-20T22:59:09.640Z,98093.31
2022-11-20T23:01:38.494Z,98104.38
2022-11-20T23:04:10.799Z,98105.69
2022-11-20T23:06:38.448Z,98106.19
2022-11-20T23:09:08.683Z,98108.63
2022-11-20T23:11:36.829Z,98104.09
2022-11-20T23:14:13.345Z,98108.47
2022-11-20T23:16:41.715Z,98107.63
2022-11-20T23:19:14.465Z,98104.50
2022-11-20T23:21:43.713Z,98104.59
2022-11-20T23:24:11.992Z,98106.13
2022-11-20T23:26:41.094Z,98104.75
2022-11-20T23:29:08.805Z,98105.72
2022-11-20T23:31:36.374Z,98110.53
2022-11-20T23:34:04.734Z,98101.63
2022-11-20T23:36:32.529Z,98105.50
2022-11-20T23:38:59.743Z,98126.91
2022-11-20T23:41:27.522Z,98113.31
2022-11-20T23:43:55.072Z,98106.75
2022-11-20T23:46:22.607Z,98110.28
2022-11-20T23:48:49.761Z,98110.22
2022-11-20T23:51:17.966Z,98099.84
2022-11-20T23:53:45.210Z,98108.75
2022-11-20T23:56:15.637Z,98114.31
2022-11-20T23:58:43.202Z,98112.56
